G. M. Dannevig — LINW — position and weather

sailwx.info

Track history (hours):
 
Tides and Currents Weather Stations Pressure Air Temp Water Temp Dewpoint Dewpoint Depression Visibility Wind Speed Wind Dir Waves Ship Positions

Oceanographic research ship G. M. Dannevig (Norway)

Detailed information on ship capabilities available from University of Delaware's Ocean Information Center.

Last reported at 2017-Mar-25 08:19 UTC. Time now 2017-Mar-26 23:02 UTC.
Position N 62°40' E 007°01'.

Length 27 m; draft 0.35 m.

Type: Dredging. MMSI: 258513000.

Date/timePositionNaut miles runAvg speedWind from/ knotsBaromVisibWave heightAir tempDewpointWater temp
2017-Mar-25 08:19N 62°40' E 007°01'19 0.8
2017-Mar-24 07:21N 62°38' E 006°20'2 0.1
2017-Mar-23 16:21N 62°39' E 006°17'3 3.5
2017-Mar-23 15:30N 62°42' E 006°17'4 4.0
2017-Mar-23 14:23N 62°38' E 006°19'  
2017-Mar-16 15:09N 59°18' E 005°20'1 0.2
2017-Mar-16 10:22N 59°17' E 005°19'7 8.7
2017-Mar-16 09:33N 59°10' E 005°21'9 9.4
2017-Mar-16 08:33N 59°01' E 005°20'9 9.4
2017-Mar-16 07:33N 58°51' E 005°23'10 9.6
2017-Mar-16 06:33N 58°42' E 005°28'9 8.9
2017-Mar-16 05:33N 58°34' E 005°36'9 8.5
2017-Mar-16 04:32N 58°28' E 005°46'8 8.5
2017-Mar-16 03:33N 58°22' E 005°58'8 8.3
2017-Mar-16 02:33N 58°16' E 006°10'9 8.4
2017-Mar-16 01:31N 58°11' E 006°22'8 8.3
2017-Mar-16 00:32N 58°05' E 006°33'8 7.7
2017-Mar-15 23:31N 58°00' E 006°45'7 7.3
2017-Mar-15 22:33N 57°58' E 006°57'7 7.5
2017-Mar-15 21:33N 57°58' E 007°12'9 1.0
2017-Mar-15 12:29N 57°59' E 007°29'22 7.2
2017-Mar-15 09:21N 58°06' E 008°09'6 8.1
2017-Mar-15 08:33N 58°10' E 008°20'  
Track history (hours):
 
Tides and Currents Weather Stations Pressure Air Temp Water Temp Dewpoint Dewpoint Depression Visibility Wind Speed Wind Dir Waves Ship Positions

Oceanographic research ship G. M. Dannevig (Norway)

Detailed information on ship capabilities available from University of Delaware's Ocean Information Center.

Last reported at 2017-Mar-25 08:19 UTC. Time now 2017-Mar-26 23:02 UTC.
Position N 62°40' E 007°01'.

Length 27 m; draft 0.35 m.

Type: Dredging. MMSI: 258513000.

Date/timePositionNaut miles runAvg speedWind from/ knotsBaromVisibWave heightAir tempDewpointWater temp
2017-Mar-25 08:19N 62°40' E 007°01'19 0.8
2017-Mar-24 07:21N 62°38' E 006°20'2 0.1
2017-Mar-23 16:21N 62°39' E 006°17'3 3.5
2017-Mar-23 15:30N 62°42' E 006°17'4 4.0
2017-Mar-23 14:23N 62°38' E 006°19'  
2017-Mar-16 15:09N 59°18' E 005°20'1 0.2
2017-Mar-16 10:22N 59°17' E 005°19'7 8.7
2017-Mar-16 09:33N 59°10' E 005°21'9 9.4
2017-Mar-16 08:33N 59°01' E 005°20'9 9.4
2017-Mar-16 07:33N 58°51' E 005°23'10 9.6
2017-Mar-16 06:33N 58°42' E 005°28'9 8.9
2017-Mar-16 05:33N 58°34' E 005°36'9 8.5
2017-Mar-16 04:32N 58°28' E 005°46'8 8.5
2017-Mar-16 03:33N 58°22' E 005°58'8 8.3
2017-Mar-16 02:33N 58°16' E 006°10'9 8.4
2017-Mar-16 01:31N 58°11' E 006°22'8 8.3
2017-Mar-16 00:32N 58°05' E 006°33'8 7.7
2017-Mar-15 23:31N 58°00' E 006°45'7 7.3
2017-Mar-15 22:33N 57°58' E 006°57'7 7.5
2017-Mar-15 21:33N 57°58' E 007°12'9 1.0
2017-Mar-15 12:29N 57°59' E 007°29'22 7.2
2017-Mar-15 09:21N 58°06' E 008°09'6 8.1
2017-Mar-15 08:33N 58°10' E 008°20'  

Dump ship's entire track history